createdAt,value
2019-03-31T00:02:03.050Z,7.79
2019-03-31T00:06:06.614Z,7.71
2019-03-31T00:10:10.327Z,7.70
2019-03-31T00:14:13.995Z,7.69
2019-03-31T00:18:17.659Z,7.62
2019-03-31T00:22:21.276Z,7.54
2019-03-31T00:26:25.003Z,7.62
2019-03-31T00:30:28.805Z,7.55
2019-03-31T00:34:32.423Z,7.54
2019-03-31T00:38:36.051Z,7.48
2019-03-31T00:42:39.648Z,7.39
2019-03-31T00:46:43.362Z,7.35
2019-03-31T00:50:47.084Z,7.23
2019-03-31T00:54:50.903Z,6.90
2019-03-31T00:58:54.489Z,6.94
2019-03-31T01:02:59.257Z,6.95
2019-03-31T01:07:03.086Z,6.95
2019-03-31T01:11:09.768Z,6.93
2019-03-31T01:15:15.996Z,6.98
2019-03-31T01:19:20.166Z,6.95
2019-03-31T01:23:23.780Z,6.89
2019-03-31T01:27:27.802Z,6.87
2019-03-31T01:31:31.567Z,6.88
2019-03-31T01:35:35.747Z,6.76
2019-03-31T01:39:39.363Z,6.70
2019-03-31T01:43:43.076Z,6.67
2019-03-31T01:47:46.793Z,6.61
2019-03-31T01:51:50.433Z,6.58
2019-03-31T01:55:54.224Z,6.49
2019-03-31T01:59:57.960Z,6.41
2019-03-31T02:04:01.582Z,6.42
2019-03-31T02:08:06.505Z,6.42
2019-03-31T02:12:10.114Z,6.37
2019-03-31T02:16:13.829Z,6.45
2019-03-31T02:20:17.562Z,6.60
2019-03-31T02:24:21.161Z,6.65
2019-03-31T02:28:24.703Z,6.60
2019-03-31T02:32:28.390Z,6.68
2019-03-31T02:36:32.007Z,6.66
2019-03-31T02:40:35.821Z,6.71
2019-03-31T02:44:39.436Z,6.86
2019-03-31T02:48:43.048Z,6.88
2019-03-31T02:52:46.662Z,6.94
2019-03-31T02:56:50.972Z,6.98
2019-03-31T03:00:54.913Z,7.04
2019-03-31T03:05:17.859Z,7.03
2019-03-31T03:09:07.160Z,7.09
2019-03-31T03:13:12.413Z,7.08
2019-03-31T03:17:16.125Z,7.10
2019-03-31T03:21:23.673Z,7.21
2019-03-31T03:25:25.303Z,7.25
2019-03-31T03:29:28.856Z,7.27
2019-03-31T03:33:32.426Z,7.37
2019-03-31T03:37:36.041Z,7.27
2019-03-31T03:41:39.654Z,7.26
2019-03-31T03:45:43.369Z,7.29
2019-03-31T03:49:46.982Z,7.33
2019-03-31T03:53:50.602Z,7.28
2019-03-31T03:57:54.212Z,7.26
2019-03-31T04:01:57.823Z,7.31
2019-03-31T04:06:01.540Z,7.21
2019-03-31T04:10:08.226Z,6.95
2019-03-31T04:14:11.849Z,6.63
2019-03-31T04:18:15.452Z,6.37
2019-03-31T04:22:19.069Z,6.20
2019-03-31T04:26:22.784Z,6.00
2019-03-31T04:30:26.400Z,5.79
2019-03-31T04:34:29.951Z,5.59
2019-03-31T04:38:33.631Z,5.48
2019-03-31T04:42:37.243Z,5.51
2019-03-31T04:46:40.835Z,5.64
2019-03-31T04:50:44.776Z,5.87
2019-03-31T04:54:48.394Z,6.04
2019-03-31T04:58:52.004Z,6.27
2019-03-31T05:02:55.558Z,6.39
2019-03-31T05:07:00.258Z,6.54
2019-03-31T05:11:04.454Z,6.54
2019-03-31T05:15:08.200Z,6.64
2019-03-31T05:19:11.813Z,6.82
2019-03-31T05:23:15.430Z,7.00
2019-03-31T05:27:19.042Z,7.06
2019-03-31T05:31:22.655Z,7.16
2019-03-31T05:35:27.187Z,7.12
2019-03-31T05:39:30.908Z,7.21
2019-03-31T05:43:34.625Z,7.27
2019-03-31T05:47:38.237Z,7.45
2019-03-31T05:51:41.952Z,7.42
2019-03-31T05:55:45.671Z,7.33
2019-03-31T05:59:49.280Z,7.29
2019-03-31T06:03:53.024Z,7.42
2019-03-31T06:07:56.613Z,7.43
2019-03-31T06:12:00.336Z,7.55
2019-03-31T06:16:04.045Z,7.70
2019-03-31T06:20:07.686Z,7.87
2019-03-31T06:24:11.235Z,7.93
2019-03-31T06:28:14.885Z,8.03
2019-03-31T06:32:18.500Z,7.89
2019-03-31T06:36:22.118Z,8.14
2019-03-31T06:40:25.658Z,8.63
2019-03-31T06:44:29.244Z,9.21
2019-03-31T06:48:32.851Z,8.74
2019-03-31T06:52:36.467Z,8.44
2019-03-31T06:56:40.086Z,8.30
2019-03-31T07:00:43.638Z,8.35
2019-03-31T07:05:00.268Z,8.33
2019-03-31T07:08:52.768Z,8.06
2019-03-31T07:12:59.631Z,8.06
2019-03-31T07:17:01.735Z,8.08
2019-03-31T07:21:05.272Z,8.22
2019-03-31T07:25:10.683Z,8.47
2019-03-31T07:29:14.319Z,8.72
2019-03-31T07:33:17.932Z,8.57
2019-03-31T07:37:21.544Z,8.43
2019-03-31T07:41:25.476Z,8.48
2019-03-31T07:45:29.181Z,10.36
2019-03-31T07:49:32.899Z,12.65
2019-03-31T07:53:36.511Z,12.99
2019-03-31T07:57:40.234Z,12.91
2019-03-31T08:01:43.833Z,12.04
2019-03-31T08:05:47.392Z,11.03
2019-03-31T08:09:50.965Z,10.22
2019-03-31T08:13:55.445Z,10.37
2019-03-31T08:17:59.628Z,11.50
2019-03-31T08:22:03.251Z,12.16
2019-03-31T08:26:06.854Z,12.50
2019-03-31T08:30:13.158Z,12.78
2019-03-31T08:34:16.720Z,12.72
2019-03-31T08:38:20.367Z,12.80
2019-03-31T08:42:24.026Z,13.37
2019-03-31T08:46:27.630Z,13.47
2019-03-31T08:50:33.288Z,14.77
2019-03-31T08:54:36.692Z,14.74
2019-03-31T08:58:40.278Z,14.43
2019-03-31T09:02:43.841Z,13.39
2019-03-31T09:06:47.406Z,11.13
2019-03-31T09:10:51.113Z,12.38
2019-03-31T09:14:54.727Z,15.21
2019-03-31T09:18:58.442Z,14.84
2019-03-31T09:23:02.080Z,16.47
2019-03-31T09:27:05.776Z,16.31
2019-03-31T09:31:09.494Z,19.30
2019-03-31T09:35:16.379Z,17.24
2019-03-31T09:39:19.919Z,15.79
2019-03-31T09:43:23.507Z,20.91
2019-03-31T09:47:27.223Z,19.47
2019-03-31T09:51:30.768Z,15.80
2019-03-31T09:55:34.556Z,15.26
2019-03-31T09:59:38.172Z,19.02
2019-03-31T10:03:41.826Z,16.42
2019-03-31T10:07:46.649Z,14.34
2019-03-31T10:11:50.359Z,13.29
2019-03-31T10:15:54.038Z,17.33
2019-03-31T10:19:57.668Z,20.49
2019-03-31T10:24:01.505Z,15.90
2019-03-31T10:28:05.145Z,16.11
2019-03-31T10:32:08.985Z,17.74
2019-03-31T10:36:12.955Z,20.46
2019-03-31T10:40:16.869Z,18.91
2019-03-31T10:44:20.482Z,17.65
2019-03-31T10:48:25.740Z,16.52
2019-03-31T10:52:29.351Z,17.30
2019-03-31T10:56:33.070Z,17.51
2019-03-31T11:00:38.175Z,17.94
2019-03-31T11:04:41.834Z,18.73
2019-03-31T11:08:45.445Z,16.23
2019-03-31T11:12:50.813Z,16.81
2019-03-31T11:16:54.614Z,14.75
2019-03-31T11:20:59.975Z,14.46
2019-03-31T11:25:03.893Z,14.34
2019-03-31T11:29:07.608Z,14.64
2019-03-31T11:33:11.460Z,13.97
2019-03-31T11:37:15.277Z,14.35
2019-03-31T11:41:19.696Z,13.41
2019-03-31T11:45:23.609Z,12.92
2019-03-31T11:49:27.439Z,13.10
2019-03-31T11:53:31.361Z,13.08
2019-03-31T11:57:34.957Z,13.67
2019-03-31T12:01:38.575Z,13.09
2019-03-31T12:05:42.297Z,13.64
2019-03-31T12:09:45.898Z,13.30
2019-03-31T12:13:49.517Z,13.74
2019-03-31T12:17:53.332Z,13.61
2019-03-31T12:21:57.918Z,13.68
2019-03-31T12:26:01.484Z,13.26
2019-03-31T12:30:08.270Z,12.87
2019-03-31T12:34:11.881Z,13.01
2019-03-31T12:38:15.429Z,13.00
2019-03-31T12:42:19.114Z,14.09
2019-03-31T12:46:22.940Z,13.12
2019-03-31T12:50:26.544Z,12.52
2019-03-31T12:54:30.367Z,13.48
2019-03-31T12:58:34.182Z,13.57
2019-03-31T13:02:37.898Z,13.59
2019-03-31T13:06:41.718Z,13.04
2019-03-31T13:10:45.331Z,13.49
2019-03-31T13:14:49.056Z,13.57
2019-03-31T13:18:53.174Z,13.67
2019-03-31T13:22:56.891Z,13.58
2019-03-31T13:27:00.473Z,13.95
2019-03-31T13:31:04.008Z,13.44
2019-03-31T13:35:08.640Z,12.50
2019-03-31T13:39:12.580Z,13.02
2019-03-31T13:43:16.191Z,13.17
2019-03-31T13:47:19.906Z,12.97
2019-03-31T13:51:24.681Z,13.14
2019-03-31T13:55:28.482Z,12.44
2019-03-31T13:59:32.080Z,12.63
2019-03-31T14:03:35.639Z,12.67
2019-03-31T14:07:39.311Z,13.16
2019-03-31T14:11:43.055Z,12.97
2019-03-31T14:15:46.639Z,12.72
2019-03-31T14:19:50.256Z,13.01
2019-03-31T14:23:53.824Z,13.23
2019-03-31T14:27:57.486Z,13.33
2019-03-31T14:32:01.209Z,12.82
2019-03-31T14:36:04.816Z,13.17
2019-03-31T14:40:08.505Z,12.56
2019-03-31T14:44:12.249Z,12.68
2019-03-31T14:48:15.885Z,12.89
2019-03-31T14:52:27.190Z,13.28
2019-03-31T14:56:24.973Z,13.29
2019-03-31T15:00:28.692Z,13.13
2019-03-31T15:04:32.368Z,12.92
2019-03-31T15:08:36.080Z,13.02
2019-03-31T15:12:40.642Z,12.80
2019-03-31T15:16:44.391Z,12.36
2019-03-31T15:20:48.492Z,11.72
2019-03-31T15:24:52.071Z,11.89
2019-03-31T15:28:56.113Z,12.07
2019-03-31T15:32:59.657Z,12.12
2019-03-31T15:37:03.330Z,11.93
2019-03-31T15:41:20.347Z,11.83
2019-03-31T15:45:12.606Z,12.10
2019-03-31T15:49:16.192Z,12.23
2019-03-31T15:53:20.037Z,12.14
2019-03-31T15:57:23.812Z,11.84
2019-03-31T16:01:28.326Z,11.93
2019-03-31T16:05:32.259Z,11.83
2019-03-31T16:09:35.825Z,11.81
2019-03-31T16:13:39.396Z,11.62
2019-03-31T16:17:43.001Z,11.75
2019-03-31T16:21:48.032Z,11.61
2019-03-31T16:25:53.353Z,11.36
2019-03-31T16:29:56.966Z,11.21
2019-03-31T16:34:00.543Z,10.69
2019-03-31T16:38:04.299Z,10.67
2019-03-31T16:42:07.909Z,10.40
2019-03-31T16:46:13.571Z,10.25
2019-03-31T16:50:17.288Z,10.05
2019-03-31T16:54:20.904Z,9.98
2019-03-31T16:58:24.517Z,9.91
2019-03-31T17:02:28.128Z,9.81
2019-03-31T17:06:31.844Z,9.72
2019-03-31T17:10:35.461Z,9.58
2019-03-31T17:14:39.078Z,9.52
2019-03-31T17:18:42.691Z,9.45
2019-03-31T17:22:46.759Z,9.34
2019-03-31T17:26:50.530Z,9.28
2019-03-31T17:30:54.145Z,9.14
2019-03-31T17:34:57.721Z,8.89
2019-03-31T17:39:01.374Z,8.68
2019-03-31T17:43:04.987Z,8.46
2019-03-31T17:47:08.597Z,8.12
2019-03-31T17:51:12.214Z,8.03
2019-03-31T17:55:16.760Z,7.85
2019-03-31T17:59:21.814Z,7.68
2019-03-31T18:03:25.411Z,7.58
2019-03-31T18:07:29.029Z,7.38
2019-03-31T18:11:32.642Z,7.11
2019-03-31T18:15:36.256Z,7.08
2019-03-31T18:19:39.826Z,7.04
2019-03-31T18:23:43.349Z,7.29
2019-03-31T18:27:47.205Z,7.24
2019-03-31T18:31:51.017Z,7.29
2019-03-31T18:35:55.895Z,7.06
2019-03-31T18:40:00.037Z,6.90
2019-03-31T18:44:04.549Z,6.74
2019-03-31T18:48:08.843Z,6.68
2019-03-31T18:52:12.839Z,6.48
2019-03-31T18:56:34.407Z,6.34
2019-03-31T19:00:45.609Z,6.33
2019-03-31T19:04:53.656Z,6.19
2019-03-31T19:08:59.180Z,6.31
2019-03-31T19:13:20.984Z,6.31
2019-03-31T19:17:38.808Z,6.29
2019-03-31T19:22:00.490Z,6.23
2019-03-31T19:26:21.441Z,6.19
2019-03-31T19:30:36.349Z,6.20
2019-03-31T19:34:51.097Z,6.26
2019-03-31T19:38:56.479Z,6.28
2019-03-31T19:43:17.289Z,6.14
2019-03-31T19:47:23.022Z,6.10
2019-03-31T19:51:29.094Z,5.79
2019-03-31T19:55:51.388Z,5.51
2019-03-31T19:59:57.259Z,5.21
2019-03-31T20:04:20.026Z,4.91
2019-03-31T20:08:43.885Z,3.76
2019-03-31T20:12:55.258Z,3.92
2019-03-31T20:17:00.831Z,3.83
2019-03-31T20:21:12.044Z,3.88
2019-03-31T20:25:20.501Z,3.91
2019-03-31T20:29:28.804Z,3.54
2019-03-31T20:33:36.997Z,3.20
2019-03-31T20:37:45.723Z,2.86
2019-03-31T20:41:59.878Z,3.05
2019-03-31T20:46:04.629Z,3.18
2019-03-31T20:50:08.628Z,3.25
2019-03-31T20:54:12.170Z,3.17
2019-03-31T20:58:15.972Z,3.05
2019-03-31T21:02:19.808Z,2.85
2019-03-31T21:06:23.711Z,2.44
2019-03-31T21:10:27.445Z,2.32
2019-03-31T21:14:31.137Z,2.25
2019-03-31T21:18:34.867Z,2.41
2019-03-31T21:22:38.514Z,2.50
2019-03-31T21:26:42.190Z,2.54
2019-03-31T21:30:46.825Z,2.40
2019-03-31T21:34:50.433Z,1.99
2019-03-31T21:38:54.055Z,1.85
2019-03-31T21:42:57.622Z,1.82
2019-03-31T21:47:01.175Z,2.00
2019-03-31T21:51:04.895Z,2.14
2019-03-31T21:55:09.731Z,2.05
2019-03-31T21:59:13.344Z,1.69
2019-03-31T22:03:16.973Z,1.68
2019-03-31T22:07:20.582Z,1.67
2019-03-31T22:11:24.187Z,1.43
2019-03-31T22:15:27.734Z,1.54
2019-03-31T22:19:31.413Z,1.62
2019-03-31T22:23:36.804Z,1.67
2019-03-31T22:27:40.383Z,1.81
2019-03-31T22:31:43.999Z,1.77
2019-03-31T22:36:06.244Z,1.55
2019-03-31T22:40:10.044Z,1.10
2019-03-31T22:44:13.678Z,1.06
2019-03-31T22:48:17.401Z,0.90
2019-03-31T22:52:21.008Z,0.96
2019-03-31T22:56:24.624Z,1.05
2019-03-31T23:00:28.339Z,0.88
2019-03-31T23:04:31.957Z,0.98
2019-03-31T23:08:35.509Z,1.08
2019-03-31T23:12:40.106Z,1.04
2019-03-31T23:16:43.923Z,0.90
2019-03-31T23:20:47.531Z,0.73
2019-03-31T23:24:51.146Z,0.78
2019-03-31T23:28:54.764Z,0.76
2019-03-31T23:32:58.376Z,0.73
2019-03-31T23:37:01.988Z,0.76
2019-03-31T23:41:05.705Z,0.88
2019-03-31T23:45:09.420Z,0.87
2019-03-31T23:49:12.979Z,0.83
2019-03-31T23:53:16.545Z,0.70
2019-03-31T23:57:21.795Z,0.36
